Ayvalik, Turkey

9:03 PM EEST on September 30, 2014 (GMT +0300)
Pligoni / Mitilini / Lesvos - SV8DTD | Change Station
CLOSE
Current Station
Personal Weather Station
Location: Ελλάδα,
Elevation: 131 ft
Nearby Weather Stations

Elev 131 ft 39.07 °N, 26.58 °E | Updated 3 minutes ago

Clear
Clear
68.7 °F
Feels Like 68.7 °F
N
8.0
Wind Variable Wind from WNW
Gusts 11.0 mph

Today
High -- | Low -- °F
--% Chance of Precip.
Yesterday
High -- | Low -- °F
Precip. -- in
7:08 AM 6:57 PM
Waxing Crescent, 38% visible
Pressure 30.15 in
Visibility -9999.0 miles
Clouds
Dew Point 52 °F
Humidity 55%
Rainfall 5.50 in
Snow Depth Not available.
UV 0.0 out of 12
Pollen Not available.
Air Quality Not available.
Flu Activity Not available.
METAR LGMT 301750Z 28004KT CAVOK 21/12 Q1021

More Conditions Fewer Conditions

Pressure 30.15 in
Visibility -9999.0 miles
Clouds
Dew Point 52 °F
Humidity 55%
Rainfall 5.50 in
Snow Depth Not available.
UV 0.0 out of 12
Pollen Not available.
Air Quality Not available.
Flu Activity Not available.
METAR LGMT 301750Z 28004KT CAVOK 21/12 Q1021

More Conditions Fewer Conditions

10-Day Weather Forecast

Almanac

Astronomy

Sep. 30, 2014 Rise Set
Actual Time 7:08 AM EEST 6:57 PM EEST
Civil Twilight 6:41 AM EEST 7:24 PM EEST
Nautical Twilight 6:10 AM EEST 7:55 PM EEST
Astronomical Twilight 5:38 AM EEST 8:26 PM EEST
Moon 12:56 PM EEST 11:10 PM EEST
Length of Visible Light 12h 43m
Length of Day
11h 49m
Tomorrow will be 2m 32s shorter.
Waxing Crescent, 38% of the Moon is Illuminated
Today
Waxing Crescent
Oct 1
First Quarter
Oct 8
Full
Oct 15
Last Quarter
Oct 23
New

Today's Extremes

Country Highs Country Lows

Community

WunderPhotos

Upload Photos

1,757,710 photos uploaded!

Nearby

Snow Depth

Not available.

Earthquake Activity

City Distance Mag. Time & Date
No recent earthquake activity has been reported nearby.
Minimum magnitude displayed is 2.5.

Coastal Water Temperatures

Place Temperature
No Stations Reporting

Nearby Weather Stations